Spar Hydra — LAKL7 — position and weather

sailwx.info

Track history (hours):
 
Tides and Currents Weather Stations Pressure Air Temp Water Temp Dewpoint Dewpoint Depression Visibility Wind Speed Wind Dir Waves Ship Positions

Spar Hydra

Last reported at 2016-Nov-25 00:04 UTC. Time now 2016-Dec-03 19:49 UTC.
Position N 29°58' W 090°17'.
Warning: this ship's position is 8 days out of date.

Length 190 m; draft 11.8 m.

Type: Cargo ship. MMSI: 259701000.

Date/timePositionNaut miles runAvg speedWind from/ knotsBaromVisibWave heightAir tempDewpointWater temp
2016-Nov-25 00:04N 29°58' W 090°17'4 8.2
2016-Nov-24 23:34N 29°56' W 090°13'6 6.4
2016-Nov-24 22:33N 29°55' W 090°05'  
2016-Nov-19 11:33N 09°22' W 079°55'0 0.0
2016-Nov-19 09:32N 09°22' W 079°56'0 0.0
2016-Nov-19 07:32N 09°22' W 079°55'0 0.0
2016-Nov-19 05:32N 09°22' W 079°56'0 0.0
2016-Nov-19 04:32N 09°22' W 079°56'0 0.0
2016-Nov-19 03:32N 09°22' W 079°56'0 0.0
2016-Nov-19 02:32N 09°22' W 079°55'0 0.0
2016-Nov-19 01:32N 09°22' W 079°55'0 0.0
2016-Nov-19 00:29N 09°22' W 079°56'0 0.0
2016-Nov-18 23:32N 09°22' W 079°55'4 1.5
2016-Nov-18 20:33N 09°18' W 079°55'2 0.9
2016-Nov-18 18:32N 09°16' W 079°55'1 1.2
2016-Nov-18 17:33N 09°15' W 079°55'  
Track history (hours):
 
Tides and Currents Weather Stations Pressure Air Temp Water Temp Dewpoint Dewpoint Depression Visibility Wind Speed Wind Dir Waves Ship Positions

Spar Hydra

Last reported at 2016-Nov-25 00:04 UTC. Time now 2016-Dec-03 19:49 UTC.
Position N 29°58' W 090°17'.
Warning: this ship's position is 8 days out of date.

Length 190 m; draft 11.8 m.

Type: Cargo ship. MMSI: 259701000.

Date/timePositionNaut miles runAvg speedWind from/ knotsBaromVisibWave heightAir tempDewpointWater temp
2016-Nov-25 00:04N 29°58' W 090°17'4 8.2
2016-Nov-24 23:34N 29°56' W 090°13'6 6.4
2016-Nov-24 22:33N 29°55' W 090°05'  
2016-Nov-19 11:33N 09°22' W 079°55'0 0.0
2016-Nov-19 09:32N 09°22' W 079°56'0 0.0
2016-Nov-19 07:32N 09°22' W 079°55'0 0.0
2016-Nov-19 05:32N 09°22' W 079°56'0 0.0
2016-Nov-19 04:32N 09°22' W 079°56'0 0.0
2016-Nov-19 03:32N 09°22' W 079°56'0 0.0
2016-Nov-19 02:32N 09°22' W 079°55'0 0.0
2016-Nov-19 01:32N 09°22' W 079°55'0 0.0
2016-Nov-19 00:29N 09°22' W 079°56'0 0.0
2016-Nov-18 23:32N 09°22' W 079°55'4 1.5
2016-Nov-18 20:33N 09°18' W 079°55'2 0.9
2016-Nov-18 18:32N 09°16' W 079°55'1 1.2
2016-Nov-18 17:33N 09°15' W 079°55'  

Dump ship's entire track history